createdAt,value
2019-03-25T00:01:37.101Z,0.00
2019-03-25T00:02:37.093Z,0.00
2019-03-25T00:03:37.495Z,0.00
2019-03-25T00:04:37.078Z,0.00
2019-03-25T00:05:37.074Z,0.00
2019-03-25T00:06:37.065Z,0.00
2019-03-25T00:07:37.057Z,0.00
2019-03-25T00:09:37.047Z,0.00
2019-03-25T00:11:37.034Z,0.00
2019-03-25T00:12:37.019Z,0.00
2019-03-25T00:13:37.019Z,0.00
2019-03-25T00:14:37.005Z,0.00
2019-03-25T00:15:37.006Z,0.00
2019-03-25T00:16:36.989Z,0.00
2019-03-25T00:17:37.188Z,0.00
2019-03-25T00:18:36.977Z,0.00
2019-03-25T00:20:37.170Z,0.00
2019-03-25T00:21:37.160Z,0.00
2019-03-25T00:22:36.948Z,0.00
2019-03-25T00:23:37.139Z,0.00
2019-03-25T00:24:39.262Z,0.00
2019-03-25T00:25:36.924Z,0.00
2019-03-25T00:27:36.907Z,0.00
2019-03-25T00:28:36.905Z,0.00
2019-03-25T00:29:36.899Z,0.00
2019-03-25T00:30:36.890Z,0.00
2019-03-25T00:31:37.085Z,0.00
2019-03-25T00:32:37.074Z,0.00
2019-03-25T00:33:36.867Z,0.00
2019-03-25T00:34:36.857Z,0.00
2019-03-25T00:35:36.854Z,0.00
2019-03-25T00:36:36.847Z,0.00
2019-03-25T00:37:36.835Z,0.00
2019-03-25T00:38:36.827Z,0.00
2019-03-25T00:39:36.821Z,0.00
2019-03-25T00:40:36.818Z,0.00
2019-03-25T00:43:36.790Z,0.00
2019-03-25T00:44:36.783Z,0.00
2019-03-25T00:45:36.776Z,0.00
2019-03-25T00:46:36.773Z,0.00
2019-03-25T00:47:36.758Z,0.00
2019-03-25T00:48:36.747Z,0.00
2019-03-25T00:49:36.945Z,0.00
2019-03-25T00:50:36.732Z,0.00
2019-03-25T00:51:36.731Z,0.00
2019-03-25T00:53:36.718Z,0.00
2019-03-25T00:55:36.696Z,0.00
2019-03-25T00:57:36.684Z,0.00
2019-03-25T00:58:36.882Z,0.00
2019-03-25T01:00:36.859Z,0.00
2019-03-25T01:01:36.656Z,0.00
2019-03-25T01:02:36.648Z,0.00
2019-03-25T01:03:36.635Z,0.00
2019-03-25T01:04:36.627Z,0.00
2019-03-25T01:05:36.825Z,0.00
2019-03-25T01:06:36.822Z,0.00
2019-03-25T01:07:36.612Z,0.00
2019-03-25T01:09:36.591Z,0.00
2019-03-25T01:10:36.582Z,0.00
2019-03-25T01:12:36.567Z,0.00
2019-03-25T01:14:36.754Z,0.00
2019-03-25T01:15:36.544Z,0.00
2019-03-25T01:16:36.536Z,0.00
2019-03-25T01:17:36.538Z,0.00
2019-03-25T01:18:36.528Z,0.00
2019-03-25T01:19:36.521Z,0.00
2019-03-25T01:20:36.508Z,0.00
2019-03-25T01:21:36.505Z,0.00
2019-03-25T01:22:36.903Z,0.00
2019-03-25T01:23:36.489Z,0.00
2019-03-25T01:24:37.694Z,0.00
2019-03-25T01:25:36.470Z,0.00
2019-03-25T01:26:36.465Z,0.00
2019-03-25T01:27:36.466Z,0.00
2019-03-25T01:29:36.438Z,0.00
2019-03-25T01:33:36.408Z,0.00
2019-03-25T01:36:36.389Z,0.00
2019-03-25T01:38:36.371Z,0.00
2019-03-25T01:39:36.372Z,0.00
2019-03-25T01:40:36.368Z,0.00
2019-03-25T01:44:36.330Z,0.00
2019-03-25T01:45:36.521Z,0.00
2019-03-25T01:46:36.320Z,0.00
2019-03-25T01:47:36.305Z,0.00
2019-03-25T01:48:36.304Z,0.00
2019-03-25T01:49:36.299Z,0.00
2019-03-25T01:50:36.291Z,0.00
2019-03-25T01:51:36.683Z,0.00
2019-03-25T01:52:36.479Z,0.00
2019-03-25T01:53:36.262Z,0.00
2019-03-25T01:54:36.254Z,0.00
2019-03-25T01:55:36.247Z,0.00
2019-03-25T01:58:37.439Z,0.00
2019-03-25T02:00:36.216Z,0.00
2019-03-25T02:01:36.203Z,0.00
2019-03-25T02:02:36.196Z,0.00
2019-03-25T02:05:36.176Z,0.00
2019-03-25T02:07:36.159Z,0.00
2019-03-25T02:08:36.156Z,0.00
2019-03-25T02:11:36.342Z,0.00
2019-03-25T02:13:36.117Z,0.00
2019-03-25T02:15:36.108Z,0.00
2019-03-25T02:16:36.093Z,0.00
2019-03-25T02:18:36.077Z,0.00
2019-03-25T02:19:36.072Z,0.00
2019-03-25T02:20:36.266Z,0.00
2019-03-25T02:21:36.265Z,0.00
2019-03-25T02:22:36.118Z,0.00
2019-03-25T02:24:36.247Z,0.00
2019-03-25T02:26:36.223Z,0.00
2019-03-25T02:27:36.220Z,0.00
2019-03-25T02:28:36.006Z,0.00
2019-03-25T02:30:36.005Z,0.00
2019-03-25T02:31:35.984Z,0.00
2019-03-25T02:32:35.979Z,0.00
2019-03-25T02:34:35.970Z,0.00
2019-03-25T02:36:36.149Z,0.00
2019-03-25T02:37:35.943Z,0.00
2019-03-25T02:38:35.930Z,0.00
2019-03-25T02:39:35.936Z,0.00
2019-03-25T02:40:35.928Z,0.00
2019-03-25T02:41:35.918Z,0.00
2019-03-25T02:42:35.912Z,0.00
2019-03-25T02:43:36.097Z,0.00
2019-03-25T02:44:35.892Z,0.00
2019-03-25T02:45:36.019Z,0.00
2019-03-25T02:46:35.872Z,0.00
2019-03-25T02:47:36.073Z,0.00
2019-03-25T02:48:37.086Z,0.00
2019-03-25T02:49:36.057Z,0.00
2019-03-25T02:50:35.847Z,0.00
2019-03-25T02:52:09.253Z,0.00
2019-03-25T02:52:35.831Z,0.00
2019-03-25T02:53:35.820Z,0.00
2019-03-25T02:55:41.747Z,0.00
2019-03-25T02:57:35.795Z,0.00
2019-03-25T02:58:35.787Z,0.00
2019-03-25T02:59:37.197Z,0.00
2019-03-25T03:00:35.773Z,0.00
2019-03-25T03:01:35.967Z,0.00
2019-03-25T03:02:36.161Z,0.00
2019-03-25T03:03:35.743Z,0.00
2019-03-25T03:04:35.741Z,0.00
2019-03-25T03:05:35.938Z,0.00
2019-03-25T03:06:35.722Z,0.00
2019-03-25T03:07:35.716Z,0.00
2019-03-25T03:08:35.708Z,0.00
2019-03-25T03:09:35.701Z,0.00
2019-03-25T03:12:35.683Z,0.00
2019-03-25T03:13:35.673Z,0.00
2019-03-25T03:14:35.660Z,0.00
2019-03-25T03:16:35.656Z,0.00
2019-03-25T03:17:35.639Z,0.00
2019-03-25T03:18:35.636Z,0.00
2019-03-25T03:19:35.628Z,0.00
2019-03-25T03:22:35.609Z,0.00
2019-03-25T03:24:35.586Z,0.00
2019-03-25T03:25:35.781Z,0.00
2019-03-25T03:26:35.580Z,0.00
2019-03-25T03:27:35.564Z,0.00
2019-03-25T03:28:35.554Z,0.00
2019-03-25T03:29:35.551Z,0.00
2019-03-25T03:32:35.526Z,0.00
2019-03-25T03:33:35.519Z,0.00
2019-03-25T03:34:35.508Z,0.00
2019-03-25T03:35:35.515Z,0.00
2019-03-25T03:37:35.508Z,0.00
2019-03-25T03:38:35.482Z,0.00
2019-03-25T03:39:35.475Z,0.00
2019-03-25T03:41:35.654Z,0.00
2019-03-25T03:42:35.453Z,0.00
2019-03-25T03:43:35.445Z,0.00
2019-03-25T03:44:35.435Z,0.00
2019-03-25T03:45:35.627Z,0.00
2019-03-25T03:46:35.418Z,0.00
2019-03-25T03:47:35.421Z,0.00
2019-03-25T03:48:35.399Z,0.00
2019-03-25T03:49:35.391Z,0.00
2019-03-25T03:50:35.394Z,0.00
2019-03-25T03:51:35.381Z,0.00
2019-03-25T03:52:35.366Z,0.00
2019-03-25T03:54:35.354Z,0.00
2019-03-25T03:55:35.343Z,0.00
2019-03-25T03:57:35.329Z,0.00
2019-03-25T03:58:35.316Z,0.00
2019-03-25T03:59:35.322Z,0.00
2019-03-25T04:00:35.311Z,0.00
2019-03-25T04:01:35.501Z,0.00
2019-03-25T04:04:35.474Z,0.00
2019-03-25T04:05:35.466Z,0.00
2019-03-25T04:06:35.251Z,0.00
2019-03-25T04:07:35.477Z,0.00
2019-03-25T04:08:35.449Z,0.00
2019-03-25T04:09:35.232Z,0.00
2019-03-25T04:10:35.238Z,0.00
2019-03-25T04:11:35.211Z,0.00
2019-03-25T04:14:35.191Z,0.00
2019-03-25T04:15:35.385Z,0.00
2019-03-25T04:16:35.174Z,0.00
2019-03-25T04:17:35.169Z,0.00
2019-03-25T04:18:35.157Z,0.00
2019-03-25T04:20:35.147Z,0.00
2019-03-25T04:21:35.141Z,0.00
2019-03-25T04:22:35.331Z,0.00
2019-03-25T04:23:35.115Z,0.00
2019-03-25T04:24:35.325Z,0.00
2019-03-25T04:25:35.098Z,0.00
2019-03-25T04:26:35.095Z,0.00
2019-03-25T04:27:35.082Z,0.00
2019-03-25T04:28:35.073Z,0.00
2019-03-25T04:29:35.068Z,0.00
2019-03-25T04:30:35.268Z,0.00
2019-03-25T04:31:35.251Z,0.00
2019-03-25T04:32:35.046Z,0.00
2019-03-25T04:33:35.037Z,0.00
2019-03-25T04:34:35.233Z,0.00
2019-03-25T04:36:35.020Z,0.00
2019-03-25T04:37:35.005Z,0.00
2019-03-25T04:38:34.994Z,0.00
2019-03-25T04:39:35.189Z,0.00
2019-03-25T04:40:34.977Z,0.00
2019-03-25T04:42:34.968Z,0.00
2019-03-25T04:43:34.953Z,0.00
2019-03-25T04:44:34.944Z,0.00
2019-03-25T04:45:34.942Z,0.00
2019-03-25T04:47:34.923Z,0.00
2019-03-25T04:48:34.910Z,0.00
2019-03-25T04:49:34.909Z,0.00
2019-03-25T04:51:34.893Z,0.00
2019-03-25T04:52:35.087Z,0.00
2019-03-25T04:53:34.872Z,4.00
2019-03-25T04:54:34.866Z,4.00
2019-03-25T04:55:34.855Z,0.00
2019-03-25T04:57:34.843Z,4.00
2019-03-25T04:58:34.829Z,4.00
2019-03-25T05:00:34.817Z,8.00
2019-03-25T05:01:34.810Z,8.00
2019-03-25T05:02:34.794Z,12.00
2019-03-25T05:03:34.787Z,12.00
2019-03-25T05:04:34.788Z,16.00
2019-03-25T05:05:36.316Z,16.00
2019-03-25T05:06:34.763Z,20.00
2019-03-25T05:07:34.761Z,24.00
2019-03-25T05:08:34.750Z,28.00
2019-03-25T05:09:34.740Z,28.00
2019-03-25T05:10:34.727Z,36.00
2019-03-25T05:11:34.929Z,40.00
2019-03-25T05:12:34.714Z,48.00
2019-03-25T05:13:36.124Z,56.00
2019-03-25T05:14:34.694Z,64.00
2019-03-25T05:15:34.705Z,72.00
2019-03-25T05:16:34.681Z,84.00
2019-03-25T05:21:35.042Z,148.00
2019-03-25T05:22:34.832Z,164.00
2019-03-25T05:23:34.629Z,176.00
2019-03-25T05:24:34.617Z,196.00
2019-03-25T05:25:34.806Z,228.00
2019-03-25T05:26:34.595Z,256.00
2019-03-25T05:27:34.589Z,272.00
2019-03-25T05:28:34.586Z,300.00
2019-03-25T05:29:34.577Z,312.00
2019-03-25T05:31:34.555Z,272.00
2019-03-25T05:32:34.549Z,288.00
2019-03-25T05:33:34.536Z,328.00
2019-03-25T05:34:34.531Z,412.00
2019-03-25T05:38:34.504Z,888.00
2019-03-25T05:39:34.488Z,788.00
2019-03-25T05:40:34.684Z,544.00
2019-03-25T05:41:34.471Z,276.00
2019-03-25T05:43:34.666Z,108.00
2019-03-25T05:45:34.447Z,60.00
2019-03-25T05:46:34.432Z,60.00
2019-03-25T05:47:34.427Z,76.00
2019-03-25T05:50:34.811Z,460.00
2019-03-25T05:51:34.393Z,556.00
2019-03-25T05:52:34.390Z,576.00
2019-03-25T05:53:34.582Z,612.00
2019-03-25T05:54:34.375Z,656.00
2019-03-25T05:55:34.358Z,696.00
2019-03-25T05:56:34.355Z,740.00
2019-03-25T05:57:34.342Z,792.00
2019-03-25T05:58:34.341Z,828.00
2019-03-25T05:59:34.325Z,860.00
2019-03-25T06:00:34.321Z,896.00
2019-03-25T06:02:34.307Z,1056.00
2019-03-25T06:04:34.490Z,1260.00
2019-03-25T06:08:35.508Z,1544.00
2019-03-25T06:10:34.245Z,1604.00
2019-03-25T06:11:34.435Z,1640.00
2019-03-25T06:12:34.222Z,1680.00
2019-03-25T06:13:34.411Z,1868.00
2019-03-25T06:14:34.208Z,2368.00
2019-03-25T06:15:35.424Z,2476.00
2019-03-25T06:16:34.196Z,2604.00
2019-03-25T06:18:34.380Z,2688.00
2019-03-25T06:19:34.374Z,2408.00
2019-03-25T06:20:34.157Z,2068.00
2019-03-25T06:21:34.152Z,2016.00
2019-03-25T06:22:34.139Z,1808.00
2019-03-25T06:23:34.137Z,1784.00
2019-03-25T06:24:34.328Z,1876.00
2019-03-25T06:26:34.306Z,1868.00
2019-03-25T06:27:34.097Z,1680.00
2019-03-25T06:28:34.092Z,1912.00
2019-03-25T06:29:34.088Z,2312.00
2019-03-25T06:30:34.076Z,2308.00
2019-03-25T06:31:34.067Z,2652.00
2019-03-25T06:32:34.060Z,2812.00
2019-03-25T06:33:34.056Z,2528.00
2019-03-25T06:34:34.248Z,3388.00
2019-03-25T06:35:34.037Z,3092.00
2019-03-25T06:36:34.027Z,2704.00
2019-03-25T06:39:34.009Z,2136.00
2019-03-25T06:40:34.205Z,2228.00
2019-03-25T06:41:33.993Z,2600.00
2019-03-25T06:42:34.184Z,3264.00
2019-03-25T06:43:33.971Z,7008.00
2019-03-25T06:44:33.970Z,4104.00
2019-03-25T06:45:33.965Z,4056.00
2019-03-25T06:46:34.155Z,4968.00
2019-03-25T06:47:34.145Z,4872.00
2019-03-25T06:48:33.933Z,5568.00
2019-03-25T06:49:33.932Z,6460.00
2019-03-25T06:50:33.922Z,5304.00
2019-03-25T06:51:33.922Z,2552.00
2019-03-25T06:54:33.897Z,1152.00
2019-03-25T06:55:33.882Z,1224.00
2019-03-25T06:56:33.874Z,1232.00
2019-03-25T06:57:33.870Z,1076.00
2019-03-25T06:58:33.862Z,920.00
2019-03-25T06:59:33.857Z,844.00
2019-03-25T07:01:34.049Z,792.00
2019-03-25T07:02:33.834Z,920.00
2019-03-25T07:03:33.825Z,880.00
2019-03-25T07:04:34.220Z,1092.00
2019-03-25T07:05:33.808Z,1168.00
2019-03-25T07:07:33.788Z,1308.00
2019-03-25T07:08:33.787Z,1504.00
2019-03-25T07:12:33.759Z,4224.00
2019-03-25T07:14:33.935Z,2684.00
2019-03-25T07:15:33.932Z,4208.00
2019-03-25T07:16:33.725Z,5804.00
2019-03-25T07:18:34.109Z,3112.00
2019-03-25T07:19:33.703Z,3608.00
2019-03-25T07:20:33.894Z,5852.00
2019-03-25T07:22:33.883Z,7832.00
2019-03-25T07:24:33.861Z,8508.00
2019-03-25T07:25:35.066Z,6260.00
2019-03-25T07:26:33.855Z,6020.00
2019-03-25T07:27:36.937Z,8860.00
2019-03-25T07:28:33.637Z,9140.00
2019-03-25T07:29:33.826Z,4560.00
2019-03-25T07:30:33.619Z,4060.00
2019-03-25T07:32:33.611Z,7252.00
2019-03-25T07:33:33.595Z,6436.00
2019-03-25T07:35:33.585Z,4120.00
2019-03-25T07:36:33.986Z,2968.00
2019-03-25T07:37:33.775Z,2580.00
2019-03-25T07:38:33.560Z,2772.00
2019-03-25T07:39:33.553Z,2764.00
2019-03-25T07:41:33.538Z,3092.00
2019-03-25T07:42:33.534Z,3884.00
2019-03-25T07:43:33.933Z,4940.00
2019-03-25T07:44:33.524Z,4136.00
2019-03-25T07:47:33.702Z,1080.00
2019-03-25T07:50:33.474Z,1188.00
2019-03-25T07:51:34.684Z,1616.00
2019-03-25T07:53:33.448Z,2232.00
2019-03-25T07:54:33.441Z,1684.00
2019-03-25T07:55:33.441Z,2152.00
2019-03-25T07:56:33.431Z,2752.00
2019-03-25T07:57:33.420Z,2028.00
2019-03-25T07:58:33.431Z,1172.00
2019-03-25T08:01:33.397Z,1524.00
2019-03-25T08:03:33.378Z,2108.00
2019-03-25T08:06:33.354Z,1548.00
2019-03-25T08:07:33.360Z,1632.00
2019-03-25T08:08:33.334Z,2696.00
2019-03-25T08:09:33.336Z,3848.00
2019-03-25T08:10:33.749Z,4220.00
2019-03-25T08:11:33.306Z,4232.00
2019-03-25T08:12:33.511Z,3992.00
2019-03-25T08:13:33.293Z,3716.00
2019-03-25T08:15:06.495Z,3492.00
2019-03-25T08:15:33.276Z,3696.00
2019-03-25T08:16:33.271Z,4356.00
2019-03-25T08:18:33.251Z,4920.00
2019-03-25T08:19:33.250Z,4300.00
2019-03-25T08:22:06.643Z,5428.00
2019-03-25T08:29:33.173Z,4920.00
2019-03-25T08:30:33.174Z,5140.00
2019-03-25T08:31:33.156Z,6544.00
2019-03-25T08:33:33.342Z,4756.00
2019-03-25T08:34:34.560Z,6984.00
2019-03-25T08:36:33.329Z,9776.00
2019-03-25T08:38:33.114Z,7744.00
2019-03-25T08:39:33.106Z,7376.00
2019-03-25T08:40:33.102Z,7832.00
2019-03-25T08:41:33.089Z,9152.00
2019-03-25T08:42:33.288Z,6824.00
2019-03-25T08:43:33.286Z,7588.00
2019-03-25T08:44:33.077Z,10552.00
2019-03-25T08:45:33.273Z,12388.00
2019-03-25T08:46:33.062Z,7260.00
2019-03-25T08:47:33.054Z,4864.00
2019-03-25T08:48:33.047Z,48320.00
2019-03-25T08:50:33.042Z,8072.00
2019-03-25T08:51:33.035Z,8488.00
2019-03-25T08:52:33.025Z,10464.00
2019-03-25T08:53:34.432Z,8228.00
2019-03-25T08:54:33.009Z,7948.00
2019-03-25T08:55:33.005Z,6200.00
2019-03-25T08:56:34.237Z,6844.00
2019-03-25T08:57:33.000Z,7480.00
2019-03-25T08:58:33.203Z,10352.00
2019-03-25T08:59:32.986Z,12932.00
2019-03-25T09:00:32.977Z,7216.00
2019-03-25T09:01:32.978Z,9512.00
2019-03-25T09:02:32.966Z,12616.00
2019-03-25T09:03:32.968Z,9468.00
2019-03-25T09:04:32.960Z,11012.00
2019-03-25T09:06:32.952Z,13784.00
2019-03-25T09:07:33.145Z,11724.00
2019-03-25T09:09:32.935Z,9636.00
2019-03-25T09:10:32.928Z,15088.00
2019-03-25T09:11:33.127Z,17152.00
2019-03-25T09:12:32.925Z,13524.00
2019-03-25T09:13:32.911Z,8028.00
2019-03-25T09:14:32.915Z,10232.00
2019-03-25T09:15:32.907Z,13304.00
2019-03-25T09:16:32.906Z,15912.00
2019-03-25T09:17:32.895Z,20160.00
2019-03-25T09:18:34.108Z,18784.00
2019-03-25T09:19:32.885Z,16136.00
2019-03-25T09:20:34.112Z,13728.00
2019-03-25T09:21:32.883Z,13732.00
2019-03-25T09:23:33.072Z,5852.00
2019-03-25T09:24:33.182Z,3220.00
2019-03-25T09:26:32.860Z,1328.00
2019-03-25T09:27:33.053Z,956.00
2019-03-25T09:28:32.851Z,932.00
2019-03-25T09:29:32.845Z,1064.00
2019-03-25T09:30:32.835Z,1268.00
2019-03-25T09:31:36.905Z,1532.00
2019-03-25T09:33:32.822Z,2216.00
2019-03-25T09:34:32.820Z,3652.00
2019-03-25T09:35:32.806Z,5116.00
2019-03-25T09:37:32.819Z,8944.00
2019-03-25T09:38:32.999Z,9092.00
2019-03-25T09:39:32.782Z,7532.00
2019-03-25T09:40:32.783Z,6112.00
2019-03-25T09:41:33.177Z,4852.00
2019-03-25T09:42:32.771Z,5940.00
2019-03-25T09:43:32.758Z,5704.00
2019-03-25T09:46:32.742Z,7840.00
2019-03-25T09:47:32.739Z,8896.00
2019-03-25T09:49:32.726Z,14060.00
2019-03-25T09:50:32.715Z,19808.00
2019-03-25T09:51:32.718Z,14576.00
2019-03-25T09:52:38.384Z,9952.00
2019-03-25T09:54:32.697Z,6548.00
2019-03-25T09:57:32.674Z,7588.00
2019-03-25T09:58:36.518Z,11676.00
2019-03-25T09:59:32.669Z,12716.00
2019-03-25T10:00:32.660Z,10972.00
2019-03-25T10:01:32.652Z,10364.00
2019-03-25T10:02:32.649Z,13148.00
2019-03-25T10:04:32.636Z,10004.00
2019-03-25T10:06:32.827Z,15496.00
2019-03-25T10:07:32.623Z,14900.00
2019-03-25T10:08:32.618Z,10336.00
2019-03-25T10:09:32.615Z,10448.00
2019-03-25T10:11:32.805Z,18784.00
2019-03-25T10:13:32.800Z,13260.00
2019-03-25T10:14:32.588Z,13380.00
2019-03-25T10:15:32.791Z,9672.00
2019-03-25T10:19:32.571Z,9960.00
2019-03-25T10:20:32.569Z,13016.00
2019-03-25T10:22:32.561Z,11316.00
2019-03-25T10:23:32.550Z,8404.00
2019-03-25T10:24:32.550Z,14276.00
2019-03-25T10:25:32.543Z,19488.00
2019-03-25T10:26:32.543Z,14760.00
2019-03-25T10:28:32.533Z,14240.00
2019-03-25T10:29:32.526Z,14392.00
2019-03-25T10:30:32.732Z,11184.00
2019-03-25T10:31:32.522Z,8348.00
2019-03-25T10:32:32.523Z,13952.00
2019-03-25T10:33:32.518Z,14656.00
2019-03-25T10:34:32.513Z,18336.00
2019-03-25T10:35:32.711Z,11584.00
2019-03-25T10:36:33.723Z,11828.00
2019-03-25T10:38:32.493Z,17312.00
2019-03-25T10:39:32.495Z,13656.00
2019-03-25T10:40:32.490Z,14000.00
2019-03-25T10:41:32.487Z,16052.00
2019-03-25T10:42:32.485Z,14752.00
2019-03-25T10:43:32.683Z,19360.00
2019-03-25T10:44:32.679Z,26880.00
2019-03-25T10:46:32.676Z,14180.00
2019-03-25T10:49:32.465Z,10112.00
2019-03-25T10:50:32.462Z,9060.00
2019-03-25T10:51:32.462Z,34272.00
2019-03-25T10:52:32.653Z,45664.00
2019-03-25T10:53:32.460Z,21504.00
2019-03-25T10:54:32.697Z,55904.00
2019-03-25T10:55:32.453Z,55648.00
2019-03-25T10:57:32.453Z,60192.00
2019-03-25T10:59:33.667Z,60896.00
2019-03-25T11:00:32.452Z,63712.00
2019-03-25T11:02:32.450Z,74112.00
2019-03-25T11:03:32.455Z,18912.00
2019-03-25T11:04:32.451Z,18368.00
2019-03-25T11:06:32.455Z,14564.00
2019-03-25T11:07:32.574Z,14168.00
2019-03-25T11:09:32.472Z,17408.00
2019-03-25T11:10:32.452Z,15044.00
2019-03-25T11:11:32.649Z,16004.00
2019-03-25T11:12:32.447Z,20224.00
2019-03-25T11:14:32.446Z,31424.00
2019-03-25T11:16:33.850Z,7288.00
2019-03-25T11:17:32.648Z,4520.00
2019-03-25T11:18:32.440Z,2520.00
2019-03-25T11:19:32.638Z,2084.00
2019-03-25T11:20:32.435Z,1852.00
2019-03-25T11:21:32.435Z,1644.00
2019-03-25T11:22:32.435Z,2064.00
2019-03-25T11:23:32.626Z,2940.00
2019-03-25T11:24:32.629Z,3356.00
2019-03-25T11:26:32.413Z,3748.00
2019-03-25T11:28:32.405Z,2000.00
2019-03-25T11:30:32.397Z,2456.00
2019-03-25T11:31:32.396Z,2740.00
2019-03-25T11:32:32.384Z,3164.00
2019-03-25T11:33:32.385Z,3840.00
2019-03-25T11:34:32.448Z,4560.00
2019-03-25T11:36:32.364Z,7116.00
2019-03-25T11:37:32.562Z,8828.00
2019-03-25T11:40:32.552Z,9840.00
2019-03-25T11:45:32.519Z,22528.00
2019-03-25T11:47:32.307Z,64288.00
2019-03-25T11:48:32.304Z,69568.00
2019-03-25T11:49:32.308Z,69568.00
2019-03-25T11:50:32.299Z,70144.00
2019-03-25T11:52:32.304Z,71040.00
2019-03-25T11:53:32.299Z,72224.00
2019-03-25T11:54:32.307Z,72480.00
2019-03-25T11:55:32.303Z,70144.00
2019-03-25T11:56:32.312Z,72064.00
2019-03-25T12:00:32.324Z,69504.00
2019-03-25T12:01:32.534Z,70560.00
2019-03-25T12:02:32.539Z,71648.00
2019-03-25T12:03:32.341Z,72064.00
2019-03-25T12:04:32.543Z,76672.00
2019-03-25T12:05:33.777Z,79712.00
2019-03-25T12:07:33.599Z,80384.00
2019-03-25T12:08:32.371Z,83680.00
2019-03-25T12:10:32.596Z,67264.00
2019-03-25T12:11:32.396Z,78752.00
2019-03-25T12:13:32.421Z,83264.00
2019-03-25T12:14:32.424Z,87712.00
2019-03-25T12:16:32.660Z,50688.00
2019-03-25T12:19:33.885Z,11284.00
2019-03-25T12:20:33.694Z,12084.00
2019-03-25T12:21:32.483Z,12848.00
2019-03-25T12:22:32.489Z,87840.00
2019-03-25T12:23:32.494Z,84928.00
2019-03-25T12:24:33.915Z,79616.00
2019-03-25T12:25:32.500Z,79616.00
2019-03-25T12:26:32.517Z,81312.00
2019-03-25T12:27:32.617Z,86944.00
2019-03-25T12:28:32.532Z,41984.00
2019-03-25T12:29:32.542Z,54944.00
2019-03-25T12:30:32.541Z,21152.00
2019-03-25T12:32:34.385Z,16284.00
2019-03-25T12:33:32.563Z,16800.00
2019-03-25T12:34:32.703Z,14976.00
2019-03-25T12:35:32.578Z,11120.00
2019-03-25T12:37:32.792Z,7728.00
2019-03-25T12:39:32.594Z,5800.00
2019-03-25T12:40:33.006Z,6028.00
2019-03-25T12:42:32.605Z,6364.00
2019-03-25T12:43:33.007Z,7388.00
2019-03-25T12:45:32.605Z,10668.00
2019-03-25T12:46:32.601Z,15656.00
2019-03-25T12:48:32.602Z,22144.00
2019-03-25T12:50:32.608Z,39808.00
2019-03-25T12:51:32.607Z,28992.00
2019-03-25T12:52:32.604Z,22944.00
2019-03-25T12:53:32.611Z,19488.00
2019-03-25T12:56:05.819Z,12344.00
2019-03-25T12:56:33.015Z,12152.00
2019-03-25T12:57:32.604Z,10956.00
2019-03-25T12:58:32.601Z,9540.00
2019-03-25T12:59:41.314Z,7612.00
2019-03-25T13:02:33.006Z,2948.00
2019-03-25T13:04:32.597Z,2388.00
2019-03-25T13:05:32.794Z,2116.00
2019-03-25T13:06:32.787Z,2344.00
2019-03-25T13:07:32.587Z,4308.00
2019-03-25T13:08:33.381Z,5188.00
2019-03-25T13:09:32.983Z,4604.00
2019-03-25T13:10:32.574Z,5200.00
2019-03-25T13:11:32.570Z,11284.00
2019-03-25T13:13:32.566Z,19072.00
2019-03-25T13:15:32.554Z,18784.00
2019-03-25T13:16:32.760Z,21120.00
2019-03-25T13:18:32.545Z,20544.00
2019-03-25T13:19:32.542Z,15112.00
2019-03-25T13:21:32.541Z,23264.00
2019-03-25T13:22:32.541Z,16012.00
2019-03-25T13:23:32.541Z,8236.00
2019-03-25T13:24:32.528Z,6676.00
2019-03-25T13:25:32.532Z,6480.00
2019-03-25T13:26:32.531Z,7288.00
2019-03-25T13:28:33.730Z,8988.00
2019-03-25T13:30:32.714Z,10984.00
2019-03-25T13:31:32.507Z,12232.00
2019-03-25T13:32:32.511Z,11244.00
2019-03-25T13:33:32.544Z,13308.00
2019-03-25T13:34:32.540Z,16196.00
2019-03-25T13:37:32.486Z,18592.00
2019-03-25T13:38:33.695Z,19808.00
2019-03-25T13:39:32.485Z,47264.00
2019-03-25T13:41:32.879Z,31712.00
2019-03-25T13:42:32.474Z,52480.00
2019-03-25T13:44:32.672Z,31712.00
2019-03-25T13:46:32.470Z,36832.00
2019-03-25T13:47:32.683Z,43328.00
2019-03-25T13:48:32.476Z,57536.00
2019-03-25T13:50:32.483Z,53920.00
2019-03-25T13:53:32.493Z,68704.00
2019-03-25T13:54:32.499Z,61280.00
2019-03-25T13:55:32.713Z,62624.00
2019-03-25T13:56:32.518Z,59040.00
2019-03-25T13:57:32.521Z,62400.00
2019-03-25T13:58:32.530Z,51456.00
2019-03-25T13:59:32.538Z,62944.00
2019-03-25T14:00:32.948Z,61536.00
2019-03-25T14:02:32.553Z,67072.00
2019-03-25T14:04:05.778Z,59744.00
2019-03-25T14:04:32.572Z,15580.00
2019-03-25T14:05:32.585Z,8572.00
2019-03-25T14:06:32.585Z,6632.00
2019-03-25T14:07:32.997Z,4748.00
2019-03-25T14:09:32.605Z,1772.00
2019-03-25T14:10:32.605Z,2496.00
2019-03-25T14:11:32.612Z,3356.00
2019-03-25T14:12:32.816Z,5264.00
2019-03-25T14:13:32.816Z,6620.00
2019-03-25T14:14:32.814Z,7484.00
2019-03-25T14:16:32.608Z,11644.00
2019-03-25T14:17:32.610Z,11212.00
2019-03-25T14:18:34.042Z,15340.00
2019-03-25T14:20:34.022Z,20128.00
2019-03-25T14:21:32.610Z,44480.00
2019-03-25T14:23:32.609Z,21472.00
2019-03-25T14:24:32.611Z,22656.00
2019-03-25T14:25:33.018Z,22368.00
2019-03-25T14:28:32.612Z,21824.00
2019-03-25T14:29:32.611Z,63840.00
2019-03-25T14:30:32.607Z,36544.00
2019-03-25T14:32:32.609Z,49088.00
2019-03-25T14:33:32.616Z,41920.00
2019-03-25T14:34:33.028Z,42176.00
2019-03-25T14:35:32.825Z,43584.00
2019-03-25T14:36:32.629Z,46752.00
2019-03-25T14:39:32.844Z,54208.00
2019-03-25T14:41:32.860Z,56064.00
2019-03-25T14:42:32.665Z,38496.00
2019-03-25T14:43:32.667Z,53088.00
2019-03-25T14:46:32.696Z,18176.00
2019-03-25T14:48:32.697Z,27392.00
2019-03-25T14:49:32.708Z,11936.00
2019-03-25T14:50:32.708Z,26016.00
2019-03-25T14:54:32.721Z,22048.00
2019-03-25T14:56:06.336Z,22496.00
2019-03-25T14:57:32.729Z,12412.00
2019-03-25T15:00:32.942Z,8156.00
2019-03-25T15:01:32.742Z,7796.00
2019-03-25T15:02:32.742Z,6644.00
2019-03-25T15:03:32.947Z,5200.00
2019-03-25T15:04:33.345Z,5644.00
2019-03-25T15:05:32.744Z,13556.00
2019-03-25T15:06:34.168Z,23264.00
2019-03-25T15:08:32.942Z,12168.00
2019-03-25T15:09:32.742Z,13328.00
2019-03-25T15:11:32.736Z,7352.00
2019-03-25T15:12:32.738Z,4580.00
2019-03-25T15:14:33.550Z,2752.00
2019-03-25T15:15:32.733Z,2480.00
2019-03-25T15:17:32.733Z,2044.00
2019-03-25T15:18:32.931Z,2360.00
2019-03-25T15:21:32.718Z,4268.00
2019-03-25T15:22:32.721Z,3476.00
2019-03-25T15:23:32.718Z,2600.00
2019-03-25T15:24:32.720Z,2256.00
2019-03-25T15:25:32.707Z,2092.00
2019-03-25T15:26:32.703Z,2660.00
2019-03-25T15:27:32.909Z,2332.00
2019-03-25T15:29:32.694Z,2284.00
2019-03-25T15:30:36.240Z,3264.00
2019-03-25T15:31:32.690Z,3948.00
2019-03-25T15:32:32.680Z,4060.00
2019-03-25T15:33:32.883Z,3524.00
2019-03-25T15:34:32.880Z,2540.00
2019-03-25T15:36:32.874Z,5224.00
2019-03-25T15:37:32.660Z,9384.00
2019-03-25T15:39:32.650Z,11836.00
2019-03-25T15:40:32.754Z,14468.00
2019-03-25T15:41:32.844Z,10072.00
2019-03-25T15:42:32.847Z,7304.00
2019-03-25T15:45:32.824Z,6076.00
2019-03-25T15:46:32.826Z,5628.00
2019-03-25T15:47:32.850Z,5144.00
2019-03-25T15:48:32.810Z,4944.00
2019-03-25T15:50:32.605Z,6080.00
2019-03-25T15:51:32.598Z,13532.00
2019-03-25T15:53:32.802Z,22400.00
2019-03-25T15:54:32.794Z,21600.00
2019-03-25T15:55:32.787Z,20288.00
2019-03-25T15:56:32.585Z,17696.00
2019-03-25T15:57:32.579Z,20096.00
2019-03-25T15:58:32.784Z,19136.00
2019-03-25T15:59:32.783Z,16800.00
2019-03-25T16:00:32.783Z,17088.00
2019-03-25T16:02:32.776Z,20224.00
2019-03-25T16:03:32.579Z,20064.00
2019-03-25T16:06:32.781Z,16352.00
2019-03-25T16:07:33.787Z,7304.00
2019-03-25T16:08:32.582Z,9024.00
2019-03-25T16:09:32.777Z,17696.00
2019-03-25T16:12:32.776Z,4284.00
2019-03-25T16:14:32.573Z,2852.00
2019-03-25T16:15:32.578Z,2344.00
2019-03-25T16:18:32.569Z,1500.00
2019-03-25T16:20:33.791Z,1604.00
2019-03-25T16:21:32.762Z,1728.00
2019-03-25T16:22:32.560Z,1924.00
2019-03-25T16:24:05.764Z,2784.00
2019-03-25T16:24:32.759Z,2328.00
2019-03-25T16:26:32.547Z,2244.00
2019-03-25T16:27:32.547Z,2992.00
2019-03-25T16:28:32.540Z,3468.00